OROVILLE DAM (ORO)

Elevation: 900' · FEATHER R basin · Operator: CA Dept of Water Resources/O & M

Provisional data, subject to change.
Query executed Friday at 15:08:23   clock

Select a sensor type for a plot of data.
Note: Reservoir Flows are daily averages.

Earlier

Date RES ELE    STORAGE    RES CHG    TOC STO    ABV TOC    OUTFLOW    INFLOW    EVAP    FNF    PPT INC    RAIN    PPTINC4   
 FEET   AF   AF   AF   AF   CFS   CFS   CFS   CFS   INCHES   INCHES   INCHES  
11/20/2014 647.93 899371 -728 3163000 -2263629 1630 1301 7 1616 0.20 4.12 0.38
11/21/2014 647.74 898221 -1150 -- -- 1506 937 11 758 0.04 4.16 0.20
11/22/2014 648.30 901615 3394 -- -- 1257 2976 7 4299 0.76 4.92 0.56
11/23/2014 648.60 903437 1822 -- -- 1174 2073 11 1987 0.00 4.92 0.24
11/24/2014 648.69 903985 548 -- -- 1173 1449 0 1174 0.00 4.92 0.00
11/25/2014 648.76 904410 426 3163000 -2258590 1173 1110 29 817 0.00 4.92 0.00
11/26/2014 648.95 905567 1156 3163000 -2257433 880 1347 7 1182 0.00 4.92 0.00
11/27/2014 648.95 905567 0 3163000 -2257433 1167 1174 7 1185 0.00 4.92 0.00
11/28/2014 648.94 905506 -61 3163000 -2257494 815 789 5 1450 0.28 5.20 0.00
11/29/2014 649.16 906846 1340 3163000 -2256154 602 1246 0 1758 0.16 5.36 0.28
11/30/2014 649.75 910446 3600 3163000 -2252554 602 2416 0 3220 0.52 5.88 0.44
12/01/2014 650.37 914240 3794 3134754 -2248760 602 2613 69 3389 0.12 6.00 0.32
12/02/2014 651.29 919889 5649 3100317 -2217487 602 3030 15 4587 0.32 6.32 0.04
12/03/2014 654.10 937292 17404 2999044 -2094059 602 5562 47 14590 2.04 8.36 0.52
12/04/2014 658.00 961817 24524 2970680 -2042501 440 17641 77 16778 1.16 9.52 2.04
12/05/2014 660.65 978728 16911 2961027 -1978467 144 8953 57 10737 0.80 10.32 0.96
12/06/2014 663.99 1000328 21600 2934038 -1932297 602 11347 49 15063 0.64 10.96 1.12
12/07/2014 666.03 1013678 13350 2945628 -1930578 602 7516 50 8730 0.00 10.96 0.32
12/08/2014 667.09 1020663 6985 2957340 -1935348 602 3791 0 5307 0.00 10.96 0.00
12/09/2014 668.16 1027746 7083 2968525 -1940780 452 4253 30 4796 0.00 10.96 0.00
12/10/2014 669.07 1033796 6050 2953294 -1919498 1 3080 25 4662 0.76 11.72 0.00
12/11/2014 675.19 1075126 41330 2804772 -1729646 0 20901 63 30000 4.04 15.76 0.92
12/12/2014 680.54 1112189 37063 2788000 -1675811 57 18708 0 22111 0.48 16.24 4.12
12/13/2014 683.08 1130096 17908 2801107 -1671011 69 9597 0 10497 0.00 16.24 0.24
12/14/2014 684.92 1143195 13098 2817214 -1674019 600 6780 5 8304 0.00 16.24 0.00
12/15/2014 686.21 1152442 9247 2804702 -1652260 601 5307 8 6485 0.52 16.76 0.04
12/16/2014 688.44 1168552 16110 2788000 -1619448 602 8578 0 -- 0.68 17.44 0.68
12/17/2014 690.22 1181525 12973 2788000 -1606475 600 7187 10 -- 0.16 17.60 0.48
12/18/2014 691.76 1192832 11307 2796116 -1603284 577 6463 0 -- 0.00 17.60 0.16
12/19/2014 -- -- -- -- -- -- -- -- -- -- -- 0.20

Later | Latest

Warning! This data is preliminary and subject to revision.

Show ORO Map | Plot ORO Data | 1 Month ORO Data | Real-Time ORO Data | ORO Info